Time;durP1;ratioP1;P1;durP2;ratioP2;P2;SDS_P1;SDS_P2;PMS_P1;PMS_P2;Temp;Humidity;BMP_temperature;BMP_pressure;BME280_temperature;BME280_humidity;BME280_pressure;Samples;Min_cycle;Max_cycle;Signal;HPM_P1;HPM_P2
2024/01/03 00:01:16;;;;;;;1.43;1.23;;;;;;;;;;4974979;28;20236;-72
2024/01/03 00:03:41;;;;;;;2.40;1.47;;;;;;;;;;4981920;28;20207;-72
2024/01/03 00:06:10;;;;;;;4.50;2.00;;;;;;;;;;4977458;28;20182;-73
2024/01/03 00:08:38;;;;;;;1.60;1.30;;;;;;;;;;4967191;28;20237;-72
2024/01/03 00:11:03;;;;;;;3.80;1.87;;;;;;;;;;4956407;28;20191;-72
2024/01/03 00:13:37;;;;;;;3.37;1.40;;;;;;;;;;4968950;28;20182;-74
2024/01/03 00:16:09;;;;;;;4.73;1.53;;;;;;;;;;4986951;28;20171;-73
2024/01/03 00:18:37;;;;;;;2.47;1.60;;;;;;;;;;4962307;28;20191;-72
2024/01/03 00:21:03;;;;;;;2.63;1.27;;;;;;;;;;4979738;28;20185;-72
2024/01/03 00:23:33;;;;;;;3.37;1.53;;;;;;;;;;4983120;28;20192;-72
2024/01/03 00:25:59;;;;;;;2.57;1.63;;;;;;;;;;4963239;28;20182;-71
2024/01/03 00:28:24;;;;;;;3.73;1.63;;;;;;;;;;4956303;28;20201;-72
2024/01/03 00:30:49;;;;;;;4.20;1.50;;;;;;;;;;4971120;28;20177;-73
2024/01/03 00:33:14;;;;;;;3.67;1.80;;;;;;;;;;4982410;28;20171;-73
2024/01/03 00:35:40;;;;;;;4.37;1.67;;;;;;;;;;4962686;28;20179;-72
2024/01/03 00:38:06;;;;;;;2.90;1.50;;;;;;;;;;4982175;28;20218;-72
2024/01/03 00:40:31;;;;;;;3.33;1.70;;;;;;;;;;4979514;28;20194;-72
2024/01/03 00:42:56;;;;;;;4.07;1.80;;;;;;;;;;4971412;28;20184;-72
2024/01/03 00:45:22;;;;;;;3.07;1.57;;;;;;;;;;4955171;28;20195;-72
2024/01/03 00:47:47;;;;;;;2.53;1.10;;;;;;;;;;4968597;28;20208;-72
2024/01/03 00:50:14;;;;;;;2.73;1.80;;;;;;;;;;4972075;28;20181;-72
2024/01/03 00:52:39;;;;;;;0.97;0.90;;;;;;;;;;4967316;28;20364;-72
2024/01/03 00:55:04;;;;;;;2.87;1.47;;;;;;;;;;4980201;28;20269;-72
2024/01/03 00:57:30;;;;;;;2.80;1.40;;;;;;;;;;4959757;28;20283;-72
2024/01/03 00:59:55;;;;;;;3.00;1.47;;;;;;;;;;4957206;28;20191;-72
2024/01/03 01:02:20;;;;;;;3.53;1.57;;;;;;;;;;4965074;28;20183;-72
2024/01/03 01:04:45;;;;;;;2.57;1.37;;;;;;;;;;4975317;28;20208;-73
2024/01/03 01:07:11;;;;;;;2.57;1.73;;;;;;;;;;4980076;28;20203;-73
2024/01/03 01:09:37;;;;;;;3.47;1.53;;;;;;;;;;4967684;28;20264;-72
2024/01/03 01:12:02;;;;;;;1.97;1.20;;;;;;;;;;4961428;28;20183;-73
2024/01/03 01:14:27;;;;;;;2.97;1.63;;;;;;;;;;4978558;28;20184;-72
2024/01/03 01:16:52;;;;;;;2.27;1.50;;;;;;;;;;4962225;28;20250;-72
2024/01/03 01:19:18;;;;;;;2.33;1.40;;;;;;;;;;4981418;28;20186;-72
2024/01/03 01:21:43;;;;;;;2.53;1.67;;;;;;;;;;4960472;28;20183;-74
2024/01/03 01:24:08;;;;;;;5.63;1.90;;;;;;;;;;4966070;28;20186;-72
2024/01/03 01:26:33;;;;;;;2.30;1.47;;;;;;;;;;4956382;28;20178;-72
2024/01/03 01:28:59;;;;;;;3.53;1.67;;;;;;;;;;4979418;28;20173;-72
2024/01/03 01:31:24;;;;;;;4.10;1.87;;;;;;;;;;4965639;28;20185;-74
2024/01/03 01:33:49;;;;;;;4.00;1.37;;;;;;;;;;4965844;28;20187;-72
2024/01/03 01:36:14;;;;;;;2.93;1.47;;;;;;;;;;4967400;28;20548;-72
2024/01/03 01:38:39;;;;;;;3.23;1.23;;;;;;;;;;4960389;28;20511;-72
2024/01/03 01:41:05;;;;;;;2.27;1.30;;;;;;;;;;4957621;28;20185;-72
2024/01/03 01:43:30;;;;;;;1.77;1.30;;;;;;;;;;4985969;28;20190;-72
2024/01/03 01:45:56;;;;;;;2.40;1.40;;;;;;;;;;4987785;28;20322;-72
2024/01/03 01:48:21;;;;;;;2.57;1.20;;;;;;;;;;4971116;28;20259;-72
2024/01/03 01:50:46;;;;;;;1.30;1.10;;;;;;;;;;4986121;28;20230;-72
2024/01/03 01:53:12;;;;;;;1.40;1.10;;;;;;;;;;4961755;28;20186;-73
2024/01/03 01:55:38;;;;;;;1.47;0.90;;;;;;;;;;4970067;28;20217;-72
2024/01/03 01:58:05;;;;;;;0.93;0.80;;;;;;;;;;4960348;28;20317;-72
2024/01/03 02:00:31;;;;;;;0.70;0.70;;;;;;;;;;4977918;28;20181;-72
2024/01/03 02:02:56;;;;;;;1.30;1.00;;;;;;;;;;4974996;28;20188;-72
2024/01/03 02:05:21;;;;;;;1.53;0.93;;;;;;;;;;4974029;28;20184;-72
2024/01/03 02:07:46;;;;;;;2.20;0.97;;;;;;;;;;4976907;28;20196;-72
2024/01/03 02:10:12;;;;;;;1.93;1.00;;;;;;;;;;4973856;28;20227;-73
2024/01/03 02:12:38;;;;;;;1.43;0.93;;;;;;;;;;4955935;28;20195;-72
2024/01/03 02:15:03;;;;;;;1.23;0.90;;;;;;;;;;4986618;28;20172;-72
2024/01/03 02:17:29;;;;;;;1.37;1.00;;;;;;;;;;4960455;28;20209;-72
2024/01/03 02:20:00;;;;;;;2.03;0.97;;;;;;;;;;4960921;28;20169;-72
2024/01/03 02:22:26;;;;;;;2.07;1.07;;;;;;;;;;4979110;28;20186;-72
2024/01/03 02:24:51;;;;;;;1.60;0.90;;;;;;;;;;4982904;28;20210;-72
2024/01/03 02:27:17;;;;;;;1.70;1.40;;;;;;;;;;4959598;28;20235;-73
2024/01/03 02:29:42;;;;;;;2.17;1.30;;;;;;;;;;4962164;28;20185;-72
2024/01/03 02:32:07;;;;;;;2.87;1.00;;;;;;;;;;4977634;28;20221;-72
2024/01/03 02:34:32;;;;;;;1.40;1.27;;;;;;;;;;4971235;28;20196;-72
2024/01/03 02:36:58;;;;;;;1.07;0.97;;;;;;;;;;4957589;28;20243;-72
2024/01/03 02:39:23;;;;;;;0.93;0.93;;;;;;;;;;4965664;28;20187;-72
2024/01/03 02:41:48;;;;;;;2.27;1.17;;;;;;;;;;4962089;28;20270;-72
2024/01/03 02:44:14;;;;;;;2.53;1.20;;;;;;;;;;4962883;28;20185;-73
2024/01/03 02:46:39;;;;;;;2.03;1.60;;;;;;;;;;4983885;28;20190;-72
2024/01/03 02:49:04;;;;;;;1.00;0.83;;;;;;;;;;4961661;28;20276;-73
2024/01/03 02:51:30;;;;;;;2.20;1.10;;;;;;;;;;4957791;28;20193;-72
2024/01/03 02:53:55;;;;;;;1.03;0.97;;;;;;;;;;4970637;28;20187;-72
2024/01/03 02:56:20;;;;;;;1.43;1.03;;;;;;;;;;4958858;28;20182;-72
2024/01/03 02:58:46;;;;;;;1.27;0.83;;;;;;;;;;4970128;28;20227;-72
2024/01/03 03:01:11;;;;;;;2.03;1.30;;;;;;;;;;4954784;28;20797;-72
2024/01/03 03:03:36;;;;;;;3.57;1.30;;;;;;;;;;4959462;28;20186;-72
2024/01/03 03:06:02;;;;;;;1.80;1.30;;;;;;;;;;4963612;28;20183;-72
2024/01/03 03:08:27;;;;;;;3.13;1.50;;;;;;;;;;4990339;28;20207;-72
2024/01/03 03:10:52;;;;;;;1.87;1.37;;;;;;;;;;4956719;28;20242;-72
2024/01/03 03:13:18;;;;;;;4.50;1.77;;;;;;;;;;4965457;28;20178;-72
2024/01/03 03:15:44;;;;;;;1.63;1.10;;;;;;;;;;4966363;28;20181;-72
2024/01/03 03:18:09;;;;;;;2.33;1.47;;;;;;;;;;4990753;28;20277;-71
2024/01/03 03:20:34;;;;;;;2.77;1.10;;;;;;;;;;4968777;28;20269;-73
2024/01/03 03:23:00;;;;;;;2.90;1.40;;;;;;;;;;4970087;28;20222;-72
2024/01/03 03:25:25;;;;;;;3.50;1.33;;;;;;;;;;4979017;28;20212;-72
2024/01/03 03:27:50;;;;;;;1.17;1.00;;;;;;;;;;4961138;28;20198;-73
2024/01/03 03:30:15;;;;;;;1.80;1.43;;;;;;;;;;4981629;28;20173;-72
2024/01/03 03:32:44;;;;;;;3.93;1.50;;;;;;;;;;4977887;28;20184;-72
2024/01/03 03:35:09;;;;;;;1.77;1.20;;;;;;;;;;4971329;28;20208;-72
2024/01/03 03:37:35;;;;;;;3.33;1.57;;;;;;;;;;4987145;28;20212;-73
2024/01/03 03:40:00;;;;;;;2.40;1.70;;;;;;;;;;4974222;28;20271;-72
2024/01/03 03:42:25;;;;;;;3.47;1.73;;;;;;;;;;4975587;28;20282;-72
2024/01/03 03:44:50;;;;;;;4.13;1.60;;;;;;;;;;4967016;28;20188;-72
2024/01/03 03:47:15;;;;;;;5.10;1.70;;;;;;;;;;4967232;28;20226;-73
2024/01/03 03:49:41;;;;;;;3.43;1.30;;;;;;;;;;4975141;28;20229;-73
2024/01/03 03:52:06;;;;;;;4.90;2.40;;;;;;;;;;4963828;28;20189;-73
2024/01/03 03:54:31;;;;;;;2.43;1.53;;;;;;;;;;4964825;28;20210;-72
2024/01/03 03:56:56;;;;;;;4.90;2.00;;;;;;;;;;4986218;28;20226;-72
2024/01/03 03:59:22;;;;;;;2.07;1.43;;;;;;;;;;4980759;28;20316;-72
2024/01/03 04:01:47;;;;;;;2.30;1.80;;;;;;;;;;4981002;28;20177;-72
2024/01/03 04:04:13;;;;;;;2.43;1.90;;;;;;;;;;4969201;28;20192;-72
2024/01/03 04:06:42;;;;;;;3.33;1.80;;;;;;;;;;4982871;28;20182;-72
2024/01/03 04:09:08;;;;;;;3.30;1.93;;;;;;;;;;4965947;28;20175;-71
2024/01/03 04:11:33;;;;;;;2.50;1.70;;;;;;;;;;4964844;28;20179;-72
2024/01/03 04:13:58;;;;;;;4.50;1.33;;;;;;;;;;4983087;28;20244;-73
2024/01/03 04:16:24;;;;;;;3.47;1.50;;;;;;;;;;4978359;28;20270;-73
2024/01/03 04:18:49;;;;;;;6.50;1.97;;;;;;;;;;4966450;28;20181;-72
2024/01/03 04:21:14;;;;;;;2.53;1.97;;;;;;;;;;4976353;28;20249;-72
2024/01/03 04:23:39;;;;;;;4.20;1.67;;;;;;;;;;4969991;28;20274;-72
2024/01/03 04:26:05;;;;;;;4.87;1.80;;;;;;;;;;4965194;28;20303;-72
2024/01/03 04:28:30;;;;;;;5.73;2.00;;;;;;;;;;4973029;28;20239;-72
2024/01/03 04:30:55;;;;;;;5.30;1.70;;;;;;;;;;4965780;28;20189;-73
2024/01/03 04:33:21;;;;;;;3.70;1.63;;;;;;;;;;4964375;28;20217;-72
2024/01/03 04:35:46;;;;;;;5.60;2.77;;;;;;;;;;4956157;28;20206;-73
2024/01/03 04:38:11;;;;;;;5.90;2.27;;;;;;;;;;4964029;28;20182;-72
2024/01/03 04:40:37;;;;;;;4.97;2.10;;;;;;;;;;4965792;28;20200;-72
2024/01/03 04:43:02;;;;;;;3.37;1.80;;;;;;;;;;4964739;28;20188;-72
2024/01/03 04:45:28;;;;;;;5.20;1.97;;;;;;;;;;4982910;28;20219;-72
2024/01/03 04:47:53;;;;;;;2.00;1.40;;;;;;;;;;4971438;28;20242;-72
2024/01/03 04:50:18;;;;;;;3.23;1.83;;;;;;;;;;4965849;28;20176;-73
2024/01/03 04:52:43;;;;;;;5.43;2.20;;;;;;;;;;4978877;28;20179;-72
2024/01/03 04:55:09;;;;;;;4.60;2.20;;;;;;;;;;4984289;28;20191;-73
2024/01/03 04:57:34;;;;;;;4.10;2.13;;;;;;;;;;4967584;28;20234;-73
2024/01/03 05:00:00;;;;;;;4.47;1.43;;;;;;;;;;4976939;28;20215;-72
2024/01/03 05:02:25;;;;;;;3.17;1.70;;;;;;;;;;4965412;28;20245;-71
2024/01/03 05:04:50;;;;;;;3.03;1.80;;;;;;;;;;4986084;28;20188;-72
2024/01/03 05:07:15;;;;;;;2.70;1.37;;;;;;;;;;4966855;28;20214;-72
2024/01/03 05:09:40;;;;;;;5.70;2.13;;;;;;;;;;4966240;28;20180;-73
2024/01/03 05:12:06;;;;;;;5.73;2.20;;;;;;;;;;4976426;28;20172;-72
2024/01/03 05:14:31;;;;;;;7.00;2.17;;;;;;;;;;4972654;28;20185;-72
2024/01/03 05:16:57;;;;;;;3.90;1.50;;;;;;;;;;4965856;28;20245;-72
2024/01/03 05:19:22;;;;;;;6.13;2.80;;;;;;;;;;4983538;28;20180;-72
2024/01/03 05:21:47;;;;;;;3.17;1.50;;;;;;;;;;4967937;28;20176;-72
2024/01/03 05:24:12;;;;;;;4.97;1.80;;;;;;;;;;4983712;28;20172;-72
2024/01/03 05:26:38;;;;;;;4.00;2.07;;;;;;;;;;4959420;28;20187;-72
2024/01/03 05:31:32;;;;;;;7.27;1.90;;;;;;;;;;5008460;28;20299;-73
2024/01/03 05:33:57;;;;;;;2.80;1.70;;;;;;;;;;4995219;28;20182;-73
2024/01/03 05:36:22;;;;;;;3.50;1.93;;;;;;;;;;5009706;28;20179;-73
2024/01/03 05:38:48;;;;;;;4.37;2.10;;;;;;;;;;4995391;28;20232;-72
2024/01/03 05:41:13;;;;;;;5.63;2.17;;;;;;;;;;5009369;28;20182;-73
2024/01/03 05:43:38;;;;;;;3.97;1.80;;;;;;;;;;5002071;28;20216;-73
2024/01/03 05:46:03;;;;;;;5.30;2.10;;;;;;;;;;5013107;28;20203;-73
2024/01/03 05:48:28;;;;;;;7.23;3.13;;;;;;;;;;5002211;28;20241;-73
2024/01/03 05:50:54;;;;;;;4.27;1.90;;;;;;;;;;5014584;28;20182;-73
2024/01/03 05:53:19;;;;;;;3.23;1.70;;;;;;;;;;4993099;28;20170;-72
2024/01/03 05:55:44;;;;;;;3.83;1.80;;;;;;;;;;5016402;28;20198;-72
2024/01/03 05:58:09;;;;;;;2.60;1.70;;;;;;;;;;5014397;28;20182;-73
2024/01/03 06:00:35;;;;;;;5.27;2.10;;;;;;;;;;4993044;28;20280;-72
2024/01/03 06:03:00;;;;;;;4.93;1.90;;;;;;;;;;5013723;28;20186;-73
2024/01/03 06:05:26;;;;;;;2.00;1.80;;;;;;;;;;4996124;28;20186;-72
2024/01/03 06:07:51;;;;;;;3.37;2.50;;;;;;;;;;4998132;28;20208;-72
2024/01/03 06:10:16;;;;;;;3.73;2.83;;;;;;;;;;4995788;28;20209;-72
2024/01/03 06:12:41;;;;;;;4.47;2.60;;;;;;;;;;5013365;28;20178;-72
2024/01/03 06:15:07;;;;;;;2.70;1.70;;;;;;;;;;4993722;28;20193;-73
2024/01/03 06:17:32;;;;;;;5.17;1.90;;;;;;;;;;4995708;28;20273;-73
2024/01/03 06:19:57;;;;;;;4.93;4.13;;;;;;;;;;5012922;28;20179;-72
2024/01/03 06:22:22;;;;;;;4.07;2.70;;;;;;;;;;5001209;28;20182;-73
2024/01/03 06:24:48;;;;;;;3.07;1.77;;;;;;;;;;5012503;28;20179;-72
2024/01/03 06:27:13;;;;;;;4.77;3.17;;;;;;;;;;4998352;28;20448;-73
2024/01/03 06:29:38;;;;;;;5.63;4.27;;;;;;;;;;5004887;28;20312;-73
2024/01/03 06:32:04;;;;;;;5.50;4.03;;;;;;;;;;5013166;28;20170;-73
2024/01/03 06:34:29;;;;;;;7.07;4.07;;;;;;;;;;4990515;28;20218;-73
2024/01/03 06:36:54;;;;;;;6.40;2.73;;;;;;;;;;4995573;28;20193;-72
2024/01/03 06:39:19;;;;;;;3.63;2.10;;;;;;;;;;4995986;28;20179;-73
2024/01/03 06:41:44;;;;;;;4.47;2.87;;;;;;;;;;5004314;28;20177;-73
2024/01/03 06:44:10;;;;;;;4.37;1.70;;;;;;;;;;5013949;28;20179;-72
2024/01/03 06:46:35;;;;;;;6.67;2.60;;;;;;;;;;4997296;28;20197;-73
2024/01/03 06:49:00;;;;;;;4.23;2.33;;;;;;;;;;5021576;28;20277;-72
2024/01/03 06:51:25;;;;;;;3.80;2.10;;;;;;;;;;4998476;28;20190;-72
2024/01/03 06:53:50;;;;;;;3.27;1.87;;;;;;;;;;5002730;28;20199;-73
2024/01/03 06:56:25;;;;;;;3.53;1.80;;;;;;;;;;5007046;28;20201;-72
2024/01/03 06:58:50;;;;;;;3.90;1.83;;;;;;;;;;5017733;28;20177;-72
2024/01/03 07:01:16;;;;;;;5.53;1.77;;;;;;;;;;5011512;28;20182;-73
2024/01/03 07:03:41;;;;;;;3.80;1.67;;;;;;;;;;5001244;28;20274;-72
2024/01/03 07:06:06;;;;;;;5.27;1.93;;;;;;;;;;5001837;28;20225;-72
2024/01/03 07:08:32;;;;;;;8.80;2.30;;;;;;;;;;5015786;28;20199;-73
2024/01/03 07:10:57;;;;;;;6.97;2.07;;;;;;;;;;4999798;28;20266;-73
2024/01/03 07:13:22;;;;;;;3.77;2.20;;;;;;;;;;4995942;28;20232;-72
2024/01/03 07:15:47;;;;;;;4.57;2.00;;;;;;;;;;5001148;28;20174;-73
2024/01/03 07:18:13;;;;;;;3.60;1.80;;;;;;;;;;4995697;28;20188;-72
2024/01/03 07:20:38;;;;;;;3.87;1.53;;;;;;;;;;5013685;28;20206;-73
2024/01/03 07:23:03;;;;;;;5.53;1.90;;;;;;;;;;5013372;28;20187;-72
2024/01/03 07:25:28;;;;;;;4.60;1.90;;;;;;;;;;4996066;28;20194;-72
2024/01/03 07:27:54;;;;;;;4.73;1.87;;;;;;;;;;5005418;28;20206;-73
2024/01/03 07:30:19;;;;;;;3.20;1.53;;;;;;;;;;5016686;28;20215;-72
2024/01/03 07:32:44;;;;;;;2.13;1.17;;;;;;;;;;4996189;28;20179;-73
2024/01/03 07:35:10;;;;;;;6.93;1.67;;;;;;;;;;5001773;28;20179;-72
2024/01/03 07:37:35;;;;;;;3.10;1.43;;;;;;;;;;5002778;28;20178;-72
2024/01/03 07:40:00;;;;;;;8.40;2.17;;;;;;;;;;5017588;28;20187;-72
2024/01/03 07:42:25;;;;;;;3.80;1.37;;;;;;;;;;5002900;28;20198;-73
2024/01/03 07:44:51;;;;;;;4.07;1.77;;;;;;;;;;5019145;28;20175;-73
2024/01/03 07:47:16;;;;;;;2.70;1.47;;;;;;;;;;5018728;28;20291;-73
2024/01/03 07:49:42;;;;;;;3.67;1.40;;;;;;;;;;4994404;28;20265;-72
2024/01/03 07:52:08;;;;;;;2.43;1.40;;;;;;;;;;5001952;28;20378;-73
2024/01/03 07:54:33;;;;;;;3.83;1.60;;;;;;;;;;5020376;28;20176;-73
2024/01/03 07:56:58;;;;;;;3.10;1.60;;;;;;;;;;5003826;28;20190;-72
2024/01/03 07:59:24;;;;;;;3.30;1.80;;;;;;;;;;5013748;28;20206;-73
2024/01/03 08:01:49;;;;;;;4.90;1.67;;;;;;;;;;5017267;28;20553;-73
2024/01/03 08:04:16;;;;;;;4.93;1.70;;;;;;;;;;5018524;28;20176;-72
2024/01/03 08:06:41;;;;;;;2.33;1.67;;;;;;;;;;5013802;28;20188;-72
2024/01/03 08:09:06;;;;;;;2.03;1.50;;;;;;;;;;5001527;28;20281;-73
2024/01/03 08:11:32;;;;;;;3.10;1.73;;;;;;;;;;5012473;28;20272;-72
2024/01/03 08:13:57;;;;;;;2.43;1.77;;;;;;;;;;4999545;28;20189;-73
2024/01/03 08:16:22;;;;;;;2.00;1.43;;;;;;;;;;5009164;28;20324;-73
2024/01/03 08:18:47;;;;;;;4.10;1.70;;;;;;;;;;5019431;28;20203;-72
2024/01/03 08:21:13;;;;;;;2.50;1.67;;;;;;;;;;5014400;28;20190;-73
2024/01/03 08:23:38;;;;;;;5.17;1.67;;;;;;;;;;4993456;28;20274;-72
2024/01/03 08:26:10;;;;;;;4.30;1.43;;;;;;;;;;4998190;28;20255;-72
2024/01/03 08:28:36;;;;;;;2.47;1.43;;;;;;;;;;5014480;28;20194;-72
2024/01/03 08:31:01;;;;;;;2.93;1.50;;;;;;;;;;4996506;28;20219;-72
2024/01/03 08:33:26;;;;;;;4.70;1.90;;;;;;;;;;4989657;28;20179;-73
2024/01/03 08:35:51;;;;;;;6.43;1.50;;;;;;;;;;5000448;28;20266;-73
2024/01/03 08:38:16;;;;;;;1.93;1.27;;;;;;;;;;4999507;28;20201;-73
2024/01/03 08:40:42;;;;;;;3.27;1.30;;;;;;;;;;5013469;28;20187;-72
2024/01/03 08:43:07;;;;;;;2.07;1.27;;;;;;;;;;4993777;28;20186;-73
2024/01/03 08:45:33;;;;;;;2.97;1.60;;;;;;;;;;5017445;28;20195;-72
2024/01/03 08:47:58;;;;;;;3.60;1.63;;;;;;;;;;5021361;28;20195;-73
2024/01/03 08:50:23;;;;;;;1.30;1.00;;;;;;;;;;4998494;28;20228;-73
2024/01/03 08:52:48;;;;;;;3.53;1.43;;;;;;;;;;4993585;28;20188;-72
2024/01/03 08:55:13;;;;;;;3.53;1.17;;;;;;;;;;5014299;28;20260;-72
2024/01/03 08:57:39;;;;;;;1.47;1.07;;;;;;;;;;4991760;28;20180;-72
2024/01/03 09:00:04;;;;;;;2.37;1.37;;;;;;;;;;4992253;28;20428;-72
2024/01/03 09:02:29;;;;;;;1.17;0.90;;;;;;;;;;4997946;28;20190;-73
2024/01/03 09:04:55;;;;;;;2.43;1.00;;;;;;;;;;5009094;28;20244;-80
2024/01/03 09:07:20;;;;;;;2.20;1.00;;;;;;;;;;5000542;28;20205;-80
2024/01/03 09:09:45;;;;;;;2.33;1.47;;;;;;;;;;5001011;28;20232;-79
2024/01/03 09:12:11;;;;;;;3.97;1.67;;;;;;;;;;5021367;28;20205;-80
2024/01/03 09:14:36;;;;;;;4.47;1.30;;;;;;;;;;4997293;28;20194;-80
2024/01/03 09:17:01;;;;;;;2.67;1.10;;;;;;;;;;5020595;28;20177;-79
2024/01/03 09:19:26;;;;;;;1.50;0.90;;;;;;;;;;4991786;28;20230;-81
2024/01/03 09:21:52;;;;;;;1.53;1.43;;;;;;;;;;5015831;28;20226;-80
2024/01/03 09:24:17;;;;;;;2.97;1.10;;;;;;;;;;5018111;28;20210;-82
2024/01/03 09:26:42;;;;;;;1.80;1.40;;;;;;;;;;4999512;28;20191;-82
2024/01/03 09:29:08;;;;;;;1.43;0.97;;;;;;;;;;5000937;28;20251;-78
2024/01/03 09:31:40;;;;;;;3.10;1.07;;;;;;;;;;5013901;28;20186;-81
2024/01/03 09:34:05;;;;;;;1.73;0.73;;;;;;;;;;4996663;28;20178;-81
2024/01/03 09:36:30;;;;;;;1.30;1.20;;;;;;;;;;5003049;28;20189;-81
2024/01/03 09:38:55;;;;;;;1.97;1.27;;;;;;;;;;4993006;28;20182;-80
2024/01/03 09:41:21;;;;;;;1.40;1.30;;;;;;;;;;4988354;28;20207;-80
2024/01/03 09:43:48;;;;;;;3.60;0.97;;;;;;;;;;5009938;28;20183;-81
2024/01/03 09:46:13;;;;;;;2.53;1.17;;;;;;;;;;5017512;28;20171;-79
2024/01/03 09:48:42;;;;;;;4.63;1.00;;;;;;;;;;4998975;28;20199;-79
2024/01/03 09:51:07;;;;;;;2.10;0.70;;;;;;;;;;5012852;28;20266;-80
2024/01/03 09:53:33;;;;;;;2.13;1.20;;;;;;;;;;4998017;28;20225;-81
2024/01/03 09:55:58;;;;;;;0.77;0.63;;;;;;;;;;4995950;28;20182;-79
2024/01/03 09:58:24;;;;;;;1.23;0.80;;;;;;;;;;4994195;28;20203;-80
2024/01/03 10:00:50;;;;;;;2.03;0.93;;;;;;;;;;4995209;28;20188;-81
2024/01/03 10:03:16;;;;;;;1.93;0.80;;;;;;;;;;4992899;28;20219;-75
2024/01/03 10:05:41;;;;;;;0.60;0.60;;;;;;;;;;5011136;28;20182;-75
2024/01/03 10:08:16;;;;;;;1.63;0.60;;;;;;;;;;4997369;28;20195;-75
2024/01/03 10:10:44;;;;;;;2.47;0.90;;;;;;;;;;5006760;28;20174;-75
2024/01/03 10:13:16;;;;;;;0.70;0.70;;;;;;;;;;5012043;28;20217;-75
2024/01/03 10:15:47;;;;;;;0.77;0.70;;;;;;;;;;4995674;28;20183;-75
2024/01/03 10:18:16;;;;;;;0.90;0.90;;;;;;;;;;5011052;28;20243;-74
2024/01/03 10:20:42;;;;;;;1.20;0.70;;;;;;;;;;4995498;28;20180;-75
2024/01/03 10:23:11;;;;;;;1.23;1.10;;;;;;;;;;5004717;28;20232;-75
2024/01/03 10:25:37;;;;;;;1.80;0.83;;;;;;;;;;5004368;28;20205;-75
2024/01/03 10:28:03;;;;;;;1.73;0.90;;;;;;;;;;4997204;28;20199;-75
2024/01/03 10:30:29;;;;;;;2.00;1.07;;;;;;;;;;4996069;28;20233;-75
2024/01/03 10:33:04;;;;;;;1.77;0.90;;;;;;;;;;5012460;28;20229;-75
2024/01/03 10:35:29;;;;;;;1.47;0.97;;;;;;;;;;5007164;28;20187;-75
2024/01/03 10:37:55;;;;;;;0.70;0.70;;;;;;;;;;4996580;28;20256;-75
2024/01/03 10:40:21;;;;;;;0.93;0.93;;;;;;;;;;5000389;28;20313;-75
2024/01/03 10:42:47;;;;;;;1.13;0.80;;;;;;;;;;5005610;28;20538;-75
2024/01/03 10:45:13;;;;;;;1.73;1.63;;;;;;;;;;5005133;28;20190;-75
2024/01/03 10:47:38;;;;;;;1.80;1.60;;;;;;;;;;4991938;28;20218;-75
2024/01/03 10:50:04;;;;;;;0.70;0.70;;;;;;;;;;4998210;28;20211;-75
2024/01/03 10:52:31;;;;;;;1.33;0.80;;;;;;;;;;5006608;28;20191;-75
2024/01/03 10:54:57;;;;;;;1.77;1.27;;;;;;;;;;5006314;28;20189;-75
2024/01/03 10:57:23;;;;;;;2.27;1.60;;;;;;;;;;4995255;28;20188;-75
2024/01/03 10:59:55;;;;;;;2.73;1.50;;;;;;;;;;4995324;28;20195;-75
2024/01/03 11:02:24;;;;;;;1.90;1.30;;;;;;;;;;5013646;28;20189;-74
2024/01/03 11:04:58;;;;;;;4.33;1.23;;;;;;;;;;4998255;28;20270;-75
2024/01/03 11:07:33;;;;;;;3.10;1.20;;;;;;;;;;5017595;28;20201;-75
2024/01/03 11:09:58;;;;;;;3.70;1.40;;;;;;;;;;5011857;28;20174;-74
2024/01/03 11:12:27;;;;;;;4.30;1.20;;;;;;;;;;4992920;28;20178;-75
2024/01/03 11:14:52;;;;;;;2.83;1.23;;;;;;;;;;5008304;28;20202;-75
2024/01/03 11:17:31;;;;;;;1.30;1.03;;;;;;;;;;5013336;28;20213;-75
2024/01/03 11:20:09;;;;;;;1.50;1.10;;;;;;;;;;5003407;28;20236;-75
2024/01/03 11:22:52;;;;;;;2.03;1.33;;;;;;;;;;4989980;28;20194;-75
2024/01/03 11:25:36;;;;;;;3.43;0.93;;;;;;;;;;5014257;28;20302;-75
2024/01/03 11:28:20;;;;;;;1.43;1.23;;;;;;;;;;5013021;28;20205;-75
2024/01/03 11:30:48;;;;;;;5.87;1.33;;;;;;;;;;5010864;28;20222;-75
2024/01/03 11:33:24;;;;;;;4.03;1.60;;;;;;;;;;5019595;28;20187;-75
2024/01/03 11:35:49;;;;;;;2.97;1.90;;;;;;;;;;5021418;28;20190;-75
2024/01/03 11:38:34;;;;;;;3.23;1.60;;;;;;;;;;5006154;28;20180;-74
2024/01/03 11:41:00;;;;;;;3.73;1.87;;;;;;;;;;4995482;28;20282;-75
2024/01/03 11:43:25;;;;;;;8.17;2.00;;;;;;;;;;5011923;28;20259;-75
2024/01/03 11:45:51;;;;;;;5.83;2.30;;;;;;;;;;5014686;28;20206;-75
2024/01/03 11:48:22;;;;;;;3.70;2.07;;;;;;;;;;4999828;28;20203;-75
2024/01/03 11:50:47;;;;;;;7.70;2.13;;;;;;;;;;5013824;28;20262;-74
2024/01/03 11:53:13;;;;;;;4.70;2.00;;;;;;;;;;4996554;28;20273;-74
2024/01/03 11:55:48;;;;;;;6.23;2.00;;;;;;;;;;5013197;28;20183;-74
2024/01/03 11:58:13;;;;;;;5.27;1.80;;;;;;;;;;5000081;28;20201;-74
2024/01/03 12:00:38;;;;;;;4.07;1.90;;;;;;;;;;4998746;28;20187;-74
2024/01/03 12:03:04;;;;;;;5.90;2.00;;;;;;;;;;4995280;28;20193;-74
2024/01/03 12:05:29;;;;;;;3.30;1.33;;;;;;;;;;4997805;28;20183;-74
2024/01/03 12:07:56;;;;;;;4.43;2.27;;;;;;;;;;5006829;28;20198;-75
2024/01/03 12:10:23;;;;;;;1.90;1.67;;;;;;;;;;4994441;28;20171;-75
2024/01/03 12:12:51;;;;;;;2.33;1.60;;;;;;;;;;5011278;28;20297;-75
2024/01/03 12:15:27;;;;;;;1.90;1.63;;;;;;;;;;4993168;28;20293;-75
2024/01/03 12:17:53;;;;;;;3.60;1.70;;;;;;;;;;5009700;28;20194;-75
2024/01/03 12:20:19;;;;;;;4.00;1.87;;;;;;;;;;4997892;28;20200;-75
2024/01/03 12:22:44;;;;;;;2.10;1.50;;;;;;;;;;4993842;28;20190;-74
2024/01/03 12:25:16;;;;;;;8.90;4.30;;;;;;;;;;4998404;28;20329;-75
2024/01/03 12:27:41;;;;;;;1.00;0.90;;;;;;;;;;5014576;28;20255;-75
2024/01/03 12:30:10;;;;;;;1.50;1.10;;;;;;;;;;4998347;28;20308;-75
2024/01/03 12:32:36;;;;;;;9.30;5.10;;;;;;;;;;4994047;28;20191;-75
2024/01/03 12:35:01;;;;;;;4.30;2.67;;;;;;;;;;4998463;28;20245;-75
2024/01/03 12:37:27;;;;;;;1.97;1.43;;;;;;;;;;4994990;28;20194;-75
2024/01/03 12:39:52;;;;;;;3.00;2.57;;;;;;;;;;5002683;28;20171;-75
2024/01/03 12:42:17;;;;;;;2.90;1.30;;;;;;;;;;4993828;28;20263;-75
2024/01/03 12:44:43;;;;;;;1.73;1.10;;;;;;;;;;5002416;28;20188;-75
2024/01/03 12:47:11;;;;;;;3.47;1.20;;;;;;;;;;5006351;28;20204;-75
2024/01/03 12:49:40;;;;;;;1.90;1.80;;;;;;;;;;5022077;28;20184;-75
2024/01/03 12:52:06;;;;;;;2.73;1.80;;;;;;;;;;4996684;28;20285;-75
2024/01/03 12:54:32;;;;;;;1.87;1.77;;;;;;;;;;5006471;28;20175;-75
2024/01/03 12:56:58;;;;;;;0.80;0.80;;;;;;;;;;5018367;28;20181;-75
2024/01/03 12:59:23;;;;;;;2.40;0.80;;;;;;;;;;4998829;28;20183;-75
2024/01/03 13:01:49;;;;;;;3.67;1.10;;;;;;;;;;5009931;28;20183;-75
2024/01/03 13:04:14;;;;;;;1.50;1.10;;;;;;;;;;4999152;28;20198;-75
2024/01/03 13:06:42;;;;;;;1.90;1.20;;;;;;;;;;5016631;28;20254;-75
2024/01/03 13:09:08;;;;;;;1.00;0.80;;;;;;;;;;5005331;28;20237;-75
2024/01/03 13:11:33;;;;;;;1.03;0.93;;;;;;;;;;4994124;28;20193;-75
2024/01/03 13:13:59;;;;;;;1.93;1.07;;;;;;;;;;5003852;28;20174;-75
2024/01/03 13:16:24;;;;;;;1.20;0.83;;;;;;;;;;4995851;28;20199;-75
2024/01/03 13:18:49;;;;;;;1.40;0.90;;;;;;;;;;5018349;28;20222;-75
2024/01/03 13:21:15;;;;;;;1.60;0.83;;;;;;;;;;5000887;28;20237;-75
2024/01/03 13:23:40;;;;;;;1.00;0.90;;;;;;;;;;4998121;28;20179;-75
2024/01/03 13:26:05;;;;;;;1.10;1.00;;;;;;;;;;5017697;28;20195;-75
2024/01/03 13:28:30;;;;;;;2.77;1.70;;;;;;;;;;4997770;28;20242;-75
2024/01/03 13:30:55;;;;;;;2.63;1.07;;;;;;;;;;4996861;28;20247;-75
2024/01/03 13:33:21;;;;;;;1.83;1.53;;;;;;;;;;5012282;28;20175;-75
2024/01/03 13:35:46;;;;;;;7.37;5.67;;;;;;;;;;5015339;28;20172;-75
2024/01/03 13:38:11;;;;;;;13.77;8.57;;;;;;;;;;4993154;28;20175;-75
2024/01/03 13:40:39;;;;;;;6.57;3.73;;;;;;;;;;4997222;28;20211;-75
2024/01/03 13:43:04;;;;;;;16.97;9.33;;;;;;;;;;5011767;28;20170;-75
2024/01/03 13:45:29;;;;;;;25.80;13.63;;;;;;;;;;5014428;28;20206;-75
2024/01/03 13:47:55;;;;;;;9.03;4.63;;;;;;;;;;5019228;28;20223;-75
2024/01/03 13:50:20;;;;;;;4.20;2.67;;;;;;;;;;5001889;28;20187;-75
2024/01/03 13:52:45;;;;;;;2.83;1.83;;;;;;;;;;5000570;28;20187;-75
2024/01/03 13:55:10;;;;;;;4.07;2.30;;;;;;;;;;5004396;28;20172;-75
2024/01/03 13:57:36;;;;;;;18.47;10.23;;;;;;;;;;5017450;28;20184;-75
2024/01/03 14:00:03;;;;;;;13.97;7.07;;;;;;;;;;5013069;28;20174;-75
2024/01/03 14:02:28;;;;;;;10.20;6.30;;;;;;;;;;5000152;28;20205;-75
2024/01/03 14:04:54;;;;;;;4.53;3.13;;;;;;;;;;5000266;28;20179;-75
2024/01/03 14:07:19;;;;;;;0.87;0.87;;;;;;;;;;5019435;28;20203;-75
2024/01/03 14:09:44;;;;;;;1.40;0.67;;;;;;;;;;4998647;28;20175;-75
2024/01/03 14:12:09;;;;;;;0.50;0.50;;;;;;;;;;5011843;28;20175;-75
2024/01/03 14:14:35;;;;;;;1.17;0.77;;;;;;;;;;5000710;28;20259;-75
2024/01/03 14:17:02;;;;;;;1.87;1.03;;;;;;;;;;5013846;28;20173;-75
2024/01/03 14:19:27;;;;;;;0.83;0.67;;;;;;;;;;5015123;28;20339;-75
2024/01/03 14:21:53;;;;;;;1.30;1.20;;;;;;;;;;5001230;28;20359;-75
2024/01/03 14:24:18;;;;;;;2.60;1.60;;;;;;;;;;4995129;28;20178;-75
2024/01/03 14:26:44;;;;;;;1.80;1.00;;;;;;;;;;5000666;28;20247;-74
2024/01/03 14:29:09;;;;;;;1.27;1.17;;;;;;;;;;4994288;28;20199;-75
2024/01/03 14:31:34;;;;;;;1.30;1.20;;;;;;;;;;4990238;28;20233;-75
2024/01/03 14:33:59;;;;;;;1.53;0.80;;;;;;;;;;5010995;28;20263;-75
2024/01/03 14:36:25;;;;;;;0.83;0.67;;;;;;;;;;4992333;28;20183;-75
2024/01/03 14:38:51;;;;;;;1.53;0.93;;;;;;;;;;4997648;28;20189;-75